sensor_id;sensor_type;location;lat;lon;timestamp;P1;durP1;ratioP1;P2;durP2;ratioP2
1765;SDS011;880;52.452;8.656;2023-08-08T00:02:19;4.32;;;3.92;;
1765;SDS011;880;52.452;8.656;2023-08-08T00:04:48;5.68;;;5.00;;
1765;SDS011;880;52.452;8.656;2023-08-08T00:07:16;3.75;;;3.45;;
1765;SDS011;880;52.452;8.656;2023-08-08T00:09:43;5.72;;;5.22;;
1765;SDS011;880;52.452;8.656;2023-08-08T00:12:11;6.25;;;3.97;;
1765;SDS011;880;52.452;8.656;2023-08-08T00:14:38;5.40;;;5.10;;
1765;SDS011;880;52.452;8.656;2023-08-08T00:17:05;4.43;;;4.05;;
1765;SDS011;880;52.452;8.656;2023-08-08T00:19:32;5.07;;;4.25;;
1765;SDS011;880;52.452;8.656;2023-08-08T00:21:59;6.25;;;4.03;;
1765;SDS011;880;52.452;8.656;2023-08-08T00:24:26;5.18;;;4.00;;
1765;SDS011;880;52.452;8.656;2023-08-08T00:26:53;4.30;;;4.00;;
1765;SDS011;880;52.452;8.656;2023-08-08T00:29:20;9.13;;;6.10;;
1765;SDS011;880;52.452;8.656;2023-08-08T00:31:47;11.23;;;4.07;;
1765;SDS011;880;52.452;8.656;2023-08-08T00:34:14;7.20;;;5.00;;
1765;SDS011;880;52.452;8.656;2023-08-08T00:36:42;5.75;;;4.53;;
1765;SDS011;880;52.452;8.656;2023-08-08T00:39:10;5.25;;;4.32;;
1765;SDS011;880;52.452;8.656;2023-08-08T00:41:37;9.57;;;5.10;;
1765;SDS011;880;52.452;8.656;2023-08-08T00:44:04;5.35;;;4.95;;
1765;SDS011;880;52.452;8.656;2023-08-08T00:46:31;5.15;;;4.70;;
1765;SDS011;880;52.452;8.656;2023-08-08T00:48:58;6.35;;;3.90;;
1765;SDS011;880;52.452;8.656;2023-08-08T00:51:25;5.40;;;4.90;;
1765;SDS011;880;52.452;8.656;2023-08-08T00:53:53;4.00;;;3.70;;
1765;SDS011;880;52.452;8.656;2023-08-08T00:56:20;8.30;;;5.35;;
1765;SDS011;880;52.452;8.656;2023-08-08T00:58:48;5.30;;;4.28;;
1765;SDS011;880;52.452;8.656;2023-08-08T01:01:17;4.93;;;4.43;;
1765;SDS011;880;52.452;8.656;2023-08-08T01:03:47;4.35;;;3.95;;
1765;SDS011;880;52.452;8.656;2023-08-08T01:09:08;5.53;;;4.25;;
1765;SDS011;880;52.452;8.656;2023-08-08T01:11:59;3.92;;;2.85;;
1765;SDS011;880;52.452;8.656;2023-08-08T01:14:29;3.47;;;3.22;;
1765;SDS011;880;52.452;8.656;2023-08-08T01:17:01;6.88;;;3.40;;
1765;SDS011;880;52.452;8.656;2023-08-08T01:19:29;5.35;;;4.20;;
1765;SDS011;880;52.452;8.656;2023-08-08T01:22:00;5.72;;;4.95;;
1765;SDS011;880;52.452;8.656;2023-08-08T01:24:31;8.88;;;4.70;;
1765;SDS011;880;52.452;8.656;2023-08-08T01:27:00;3.97;;;3.42;;
1765;SDS011;880;52.452;8.656;2023-08-08T01:29:27;7.05;;;5.10;;
1765;SDS011;880;52.452;8.656;2023-08-08T01:31:55;4.90;;;4.50;;
1765;SDS011;880;52.452;8.656;2023-08-08T01:34:23;4.97;;;4.18;;
1765;SDS011;880;52.452;8.656;2023-08-08T01:39:32;6.03;;;4.75;;
1765;SDS011;880;52.452;8.656;2023-08-08T01:42:00;4.47;;;4.18;;
1765;SDS011;880;52.452;8.656;2023-08-08T01:44:28;5.68;;;4.40;;
1765;SDS011;880;52.452;8.656;2023-08-08T01:46:57;5.10;;;4.40;;
1765;SDS011;880;52.452;8.656;2023-08-08T01:49:24;6.20;;;4.32;;
1765;SDS011;880;52.452;8.656;2023-08-08T01:51:51;5.68;;;5.00;;
1765;SDS011;880;52.452;8.656;2023-08-08T01:54:19;5.20;;;4.32;;
1765;SDS011;880;52.452;8.656;2023-08-08T01:56:46;5.90;;;4.93;;
1765;SDS011;880;52.452;8.656;2023-08-08T01:59:13;5.70;;;5.03;;
1765;SDS011;880;52.452;8.656;2023-08-08T02:01:41;5.53;;;4.80;;
1765;SDS011;880;52.452;8.656;2023-08-08T02:04:08;6.78;;;6.18;;
1765;SDS011;880;52.452;8.656;2023-08-08T02:06:36;5.82;;;5.22;;
1765;SDS011;880;52.452;8.656;2023-08-08T02:09:03;5.68;;;4.70;;
1765;SDS011;880;52.452;8.656;2023-08-08T02:11:30;9.13;;;4.35;;
1765;SDS011;880;52.452;8.656;2023-08-08T02:13:57;7.72;;;4.30;;
1765;SDS011;880;52.452;8.656;2023-08-08T02:16:25;7.05;;;6.45;;
1765;SDS011;880;52.452;8.656;2023-08-08T02:18:52;5.13;;;4.68;;
1765;SDS011;880;52.452;8.656;2023-08-08T02:21:19;6.72;;;6.13;;
1765;SDS011;880;52.452;8.656;2023-08-08T02:23:47;6.82;;;5.25;;
1765;SDS011;880;52.452;8.656;2023-08-08T02:26:14;6.55;;;4.78;;
1765;SDS011;880;52.452;8.656;2023-08-08T02:28:41;6.28;;;4.97;;
1765;SDS011;880;52.452;8.656;2023-08-08T02:31:09;5.20;;;4.68;;
1765;SDS011;880;52.452;8.656;2023-08-08T02:33:36;9.05;;;5.30;;
1765;SDS011;880;52.452;8.656;2023-08-08T02:36:03;6.43;;;5.25;;
1765;SDS011;880;52.452;8.656;2023-08-08T02:38:30;8.00;;;5.25;;
1765;SDS011;880;52.452;8.656;2023-08-08T02:40:57;7.38;;;4.97;;
1765;SDS011;880;52.452;8.656;2023-08-08T02:43:24;5.28;;;4.68;;
1765;SDS011;880;52.452;8.656;2023-08-08T02:45:52;5.32;;;4.70;;
1765;SDS011;880;52.452;8.656;2023-08-08T02:48:19;4.85;;;4.38;;
1765;SDS011;880;52.452;8.656;2023-08-08T02:50:46;5.25;;;4.72;;
1765;SDS011;880;52.452;8.656;2023-08-08T02:53:14;5.05;;;4.55;;
1765;SDS011;880;52.452;8.656;2023-08-08T02:55:44;9.18;;;6.82;;
1765;SDS011;880;52.452;8.656;2023-08-08T02:58:11;5.05;;;4.15;;
1765;SDS011;880;52.452;8.656;2023-08-08T03:00:38;10.25;;;5.65;;
1765;SDS011;880;52.452;8.656;2023-08-08T03:03:09;4.30;;;3.90;;
1765;SDS011;880;52.452;8.656;2023-08-08T03:05:36;4.97;;;4.43;;
1765;SDS011;880;52.452;8.656;2023-08-08T03:08:04;7.28;;;5.05;;
1765;SDS011;880;52.452;8.656;2023-08-08T03:10:32;7.70;;;4.85;;
1765;SDS011;880;52.452;8.656;2023-08-08T03:12:59;5.63;;;4.22;;
1765;SDS011;880;52.452;8.656;2023-08-08T03:15:26;5.63;;;4.60;;
1765;SDS011;880;52.452;8.656;2023-08-08T03:17:54;4.97;;;4.43;;
1765;SDS011;880;52.452;8.656;2023-08-08T03:20:22;7.38;;;4.68;;
1765;SDS011;880;52.452;8.656;2023-08-08T03:22:49;6.47;;;4.70;;
1765;SDS011;880;52.452;8.656;2023-08-08T03:25:16;5.15;;;4.10;;
1765;SDS011;880;52.452;8.656;2023-08-08T03:27:43;4.93;;;4.43;;
1765;SDS011;880;52.452;8.656;2023-08-08T03:30:13;8.57;;;5.03;;
1765;SDS011;880;52.452;8.656;2023-08-08T03:32:42;9.75;;;5.20;;
1765;SDS011;880;52.452;8.656;2023-08-08T03:35:09;5.20;;;4.70;;
1765;SDS011;880;52.452;8.656;2023-08-08T03:37:39;8.27;;;4.20;;
1765;SDS011;880;52.452;8.656;2023-08-08T03:40:06;5.07;;;4.63;;
1765;SDS011;880;52.452;8.656;2023-08-08T03:42:34;7.65;;;4.68;;
1765;SDS011;880;52.452;8.656;2023-08-08T03:45:01;7.22;;;5.03;;
1765;SDS011;880;52.452;8.656;2023-08-08T03:47:29;6.25;;;4.82;;
1765;SDS011;880;52.452;8.656;2023-08-08T03:49:56;4.10;;;3.67;;
1765;SDS011;880;52.452;8.656;2023-08-08T03:52:24;8.75;;;4.80;;
1765;SDS011;880;52.452;8.656;2023-08-08T03:54:51;6.53;;;4.82;;
1765;SDS011;880;52.452;8.656;2023-08-08T03:57:20;5.68;;;4.28;;
1765;SDS011;880;52.452;8.656;2023-08-08T03:59:47;5.45;;;4.95;;
1765;SDS011;880;52.452;8.656;2023-08-08T04:02:14;5.50;;;4.60;;
1765;SDS011;880;52.452;8.656;2023-08-08T04:04:41;7.75;;;4.82;;
1765;SDS011;880;52.452;8.656;2023-08-08T04:07:09;6.70;;;5.68;;
1765;SDS011;880;52.452;8.656;2023-08-08T04:09:36;9.32;;;4.72;;
1765;SDS011;880;52.452;8.656;2023-08-08T04:12:04;5.18;;;4.75;;
1765;SDS011;880;52.452;8.656;2023-08-08T04:14:31;8.73;;;5.28;;
1765;SDS011;880;52.452;8.656;2023-08-08T04:16:58;6.95;;;5.05;;
1765;SDS011;880;52.452;8.656;2023-08-08T04:19:25;7.45;;;5.78;;
1765;SDS011;880;52.452;8.656;2023-08-08T04:21:52;9.55;;;6.07;;
1765;SDS011;880;52.452;8.656;2023-08-08T04:24:20;7.15;;;6.35;;
1765;SDS011;880;52.452;8.656;2023-08-08T04:26:47;8.25;;;6.00;;
1765;SDS011;880;52.452;8.656;2023-08-08T04:29:14;7.82;;;7.03;;
1765;SDS011;880;52.452;8.656;2023-08-08T04:31:41;6.38;;;5.68;;
1765;SDS011;880;52.452;8.656;2023-08-08T04:34:08;7.70;;;6.50;;
1765;SDS011;880;52.452;8.656;2023-08-08T04:36:35;10.43;;;7.13;;
1765;SDS011;880;52.452;8.656;2023-08-08T04:39:02;13.18;;;7.25;;
1765;SDS011;880;52.452;8.656;2023-08-08T04:41:29;11.98;;;6.60;;
1765;SDS011;880;52.452;8.656;2023-08-08T04:43:56;9.20;;;6.32;;
1765;SDS011;880;52.452;8.656;2023-08-08T04:46:23;8.30;;;7.30;;
1765;SDS011;880;52.452;8.656;2023-08-08T04:48:51;9.48;;;7.43;;
1765;SDS011;880;52.452;8.656;2023-08-08T04:51:18;6.20;;;5.70;;
1765;SDS011;880;52.452;8.656;2023-08-08T04:53:45;6.93;;;6.38;;
1765;SDS011;880;52.452;8.656;2023-08-08T04:56:12;6.15;;;5.65;;
1765;SDS011;880;52.452;8.656;2023-08-08T04:58:39;8.18;;;6.80;;
1765;SDS011;880;52.452;8.656;2023-08-08T05:01:06;8.27;;;6.35;;
1765;SDS011;880;52.452;8.656;2023-08-08T05:03:35;9.20;;;6.90;;
1765;SDS011;880;52.452;8.656;2023-08-08T05:06:03;7.88;;;6.40;;
1765;SDS011;880;52.452;8.656;2023-08-08T05:08:30;6.63;;;5.82;;
1765;SDS011;880;52.452;8.656;2023-08-08T05:10:57;8.50;;;6.88;;
1765;SDS011;880;52.452;8.656;2023-08-08T05:13:24;7.88;;;7.10;;
1765;SDS011;880;52.452;8.656;2023-08-08T05:15:51;8.80;;;7.40;;
1765;SDS011;880;52.452;8.656;2023-08-08T05:18:18;11.80;;;8.82;;
1765;SDS011;880;52.452;8.656;2023-08-08T05:20:45;6.25;;;5.85;;
1765;SDS011;880;52.452;8.656;2023-08-08T05:23:12;11.43;;;6.95;;
1765;SDS011;880;52.452;8.656;2023-08-08T05:25:39;10.82;;;7.50;;
1765;SDS011;880;52.452;8.656;2023-08-08T05:28:07;9.98;;;7.45;;
1765;SDS011;880;52.452;8.656;2023-08-08T05:30:33;8.93;;;7.10;;
1765;SDS011;880;52.452;8.656;2023-08-08T05:33:01;10.32;;;7.38;;
1765;SDS011;880;52.452;8.656;2023-08-08T05:35:28;8.23;;;7.45;;
1765;SDS011;880;52.452;8.656;2023-08-08T05:37:55;9.15;;;7.45;;
1765;SDS011;880;52.452;8.656;2023-08-08T05:40:22;8.82;;;7.80;;
1765;SDS011;880;52.452;8.656;2023-08-08T05:42:49;10.75;;;8.35;;
1765;SDS011;880;52.452;8.656;2023-08-08T05:45:16;9.00;;;7.85;;
1765;SDS011;880;52.452;8.656;2023-08-08T05:47:43;12.05;;;8.20;;
1765;SDS011;880;52.452;8.656;2023-08-08T05:50:10;11.77;;;10.60;;
1765;SDS011;880;52.452;8.656;2023-08-08T05:52:37;8.50;;;7.70;;
1765;SDS011;880;52.452;8.656;2023-08-08T05:55:04;8.27;;;7.55;;
1765;SDS011;880;52.452;8.656;2023-08-08T05:57:32;10.27;;;8.55;;
1765;SDS011;880;52.452;8.656;2023-08-08T05:59:59;9.70;;;8.75;;
1765;SDS011;880;52.452;8.656;2023-08-08T06:02:38;8.35;;;7.57;;
1765;SDS011;880;52.452;8.656;2023-08-08T06:05:05;12.80;;;7.63;;
1765;SDS011;880;52.452;8.656;2023-08-08T06:07:33;9.00;;;7.60;;
1765;SDS011;880;52.452;8.656;2023-08-08T06:10:00;9.00;;;7.80;;
1765;SDS011;880;52.452;8.656;2023-08-08T06:12:27;7.95;;;7.30;;
1765;SDS011;880;52.452;8.656;2023-08-08T06:14:53;8.63;;;7.80;;
1765;SDS011;880;52.452;8.656;2023-08-08T06:17:20;8.73;;;7.75;;
1765;SDS011;880;52.452;8.656;2023-08-08T06:19:49;11.93;;;8.18;;
1765;SDS011;880;52.452;8.656;2023-08-08T06:22:17;10.00;;;7.55;;
1765;SDS011;880;52.452;8.656;2023-08-08T06:24:46;8.98;;;8.00;;
1765;SDS011;880;52.452;8.656;2023-08-08T06:27:13;9.52;;;8.55;;
1765;SDS011;880;52.452;8.656;2023-08-08T06:29:40;7.90;;;7.28;;
1765;SDS011;880;52.452;8.656;2023-08-08T06:32:07;8.80;;;7.88;;
1765;SDS011;880;52.452;8.656;2023-08-08T06:34:34;9.73;;;7.55;;
1765;SDS011;880;52.452;8.656;2023-08-08T06:37:01;9.73;;;8.88;;
1765;SDS011;880;52.452;8.656;2023-08-08T06:39:28;8.07;;;7.47;;
1765;SDS011;880;52.452;8.656;2023-08-08T06:41:56;8.93;;;8.13;;
1765;SDS011;880;52.452;8.656;2023-08-08T06:44:40;10.32;;;8.75;;
1765;SDS011;880;52.452;8.656;2023-08-08T06:47:09;10.32;;;8.13;;
1765;SDS011;880;52.452;8.656;2023-08-08T06:49:37;7.47;;;7.05;;
1765;SDS011;880;52.452;8.656;2023-08-08T06:52:05;8.38;;;7.57;;
1765;SDS011;880;52.452;8.656;2023-08-08T06:54:32;8.07;;;7.45;;
1765;SDS011;880;52.452;8.656;2023-08-08T06:56:59;10.27;;;9.40;;
1765;SDS011;880;52.452;8.656;2023-08-08T06:59:28;7.88;;;7.20;;
1765;SDS011;880;52.452;8.656;2023-08-08T07:01:55;8.38;;;7.55;;
1765;SDS011;880;52.452;8.656;2023-08-08T07:04:23;7.00;;;6.57;;
1765;SDS011;880;52.452;8.656;2023-08-08T07:06:50;7.80;;;7.10;;
1765;SDS011;880;52.452;8.656;2023-08-08T07:09:17;8.50;;;7.85;;
1765;SDS011;880;52.452;8.656;2023-08-08T07:11:44;7.88;;;7.15;;
1765;SDS011;880;52.452;8.656;2023-08-08T07:14:12;7.45;;;6.85;;
1765;SDS011;880;52.452;8.656;2023-08-08T07:16:39;8.85;;;8.13;;
1765;SDS011;880;52.452;8.656;2023-08-08T07:19:06;8.00;;;7.40;;
1765;SDS011;880;52.452;8.656;2023-08-08T07:21:33;8.02;;;7.32;;
1765;SDS011;880;52.452;8.656;2023-08-08T07:24:00;6.97;;;6.57;;
1765;SDS011;880;52.452;8.656;2023-08-08T07:26:29;10.95;;;8.13;;
1765;SDS011;880;52.452;8.656;2023-08-08T07:28:56;8.35;;;7.80;;
1765;SDS011;880;52.452;8.656;2023-08-08T07:31:23;10.57;;;9.75;;
1765;SDS011;880;52.452;8.656;2023-08-08T07:33:50;10.52;;;9.93;;
1765;SDS011;880;52.452;8.656;2023-08-08T07:36:17;7.25;;;6.35;;
1765;SDS011;880;52.452;8.656;2023-08-08T07:38:44;8.52;;;7.70;;
1765;SDS011;880;52.452;8.656;2023-08-08T07:41:11;7.40;;;6.80;;
1765;SDS011;880;52.452;8.656;2023-08-08T07:43:38;7.38;;;6.75;;
1765;SDS011;880;52.452;8.656;2023-08-08T07:46:05;6.90;;;6.22;;
1765;SDS011;880;52.452;8.656;2023-08-08T07:48:32;8.50;;;7.18;;
1765;SDS011;880;52.452;8.656;2023-08-08T07:50:59;8.15;;;6.85;;
1765;SDS011;880;52.452;8.656;2023-08-08T07:53:26;8.05;;;7.25;;
1765;SDS011;880;52.452;8.656;2023-08-08T07:55:53;7.65;;;7.20;;
1765;SDS011;880;52.452;8.656;2023-08-08T07:58:20;6.53;;;6.13;;
1765;SDS011;880;52.452;8.656;2023-08-08T08:00:49;7.40;;;6.90;;
1765;SDS011;880;52.452;8.656;2023-08-08T08:03:18;7.55;;;7.05;;
1765;SDS011;880;52.452;8.656;2023-08-08T08:05:46;8.43;;;7.82;;
1765;SDS011;880;52.452;8.656;2023-08-08T08:08:13;7.88;;;7.43;;
1765;SDS011;880;52.452;8.656;2023-08-08T08:10:40;8.70;;;8.23;;
1765;SDS011;880;52.452;8.656;2023-08-08T08:13:08;7.97;;;7.32;;
1765;SDS011;880;52.452;8.656;2023-08-08T08:15:35;7.95;;;7.40;;
1765;SDS011;880;52.452;8.656;2023-08-08T08:18:02;8.43;;;7.72;;
1765;SDS011;880;52.452;8.656;2023-08-08T08:20:29;9.50;;;9.00;;
1765;SDS011;880;52.452;8.656;2023-08-08T08:22:56;7.07;;;6.55;;
1765;SDS011;880;52.452;8.656;2023-08-08T08:25:23;8.95;;;7.20;;
1765;SDS011;880;52.452;8.656;2023-08-08T08:27:50;8.23;;;7.60;;
1765;SDS011;880;52.452;8.656;2023-08-08T08:30:17;6.78;;;6.38;;
1765;SDS011;880;52.452;8.656;2023-08-08T08:32:45;8.25;;;7.60;;
1765;SDS011;880;52.452;8.656;2023-08-08T08:35:12;7.50;;;7.00;;
1765;SDS011;880;52.452;8.656;2023-08-08T08:37:40;7.55;;;6.93;;
1765;SDS011;880;52.452;8.656;2023-08-08T08:40:07;7.70;;;6.93;;
1765;SDS011;880;52.452;8.656;2023-08-08T08:42:35;7.10;;;6.60;;
1765;SDS011;880;52.452;8.656;2023-08-08T08:45:03;9.35;;;8.00;;
1765;SDS011;880;52.452;8.656;2023-08-08T08:47:31;7.10;;;6.50;;
1765;SDS011;880;52.452;8.656;2023-08-08T08:50:02;8.88;;;7.88;;
1765;SDS011;880;52.452;8.656;2023-08-08T08:52:30;7.60;;;7.07;;
1765;SDS011;880;52.452;8.656;2023-08-08T08:54:57;8.23;;;7.63;;
1765;SDS011;880;52.452;8.656;2023-08-08T08:57:24;7.53;;;7.03;;
1765;SDS011;880;52.452;8.656;2023-08-08T08:59:52;7.38;;;6.82;;
1765;SDS011;880;52.452;8.656;2023-08-08T09:02:19;9.10;;;8.38;;
1765;SDS011;880;52.452;8.656;2023-08-08T09:04:47;7.90;;;7.35;;
1765;SDS011;880;52.452;8.656;2023-08-08T09:07:14;8.70;;;8.25;;
1765;SDS011;880;52.452;8.656;2023-08-08T09:09:45;7.15;;;6.78;;
1765;SDS011;880;52.452;8.656;2023-08-08T09:12:12;8.05;;;7.45;;
1765;SDS011;880;52.452;8.656;2023-08-08T09:14:40;7.60;;;6.95;;
1765;SDS011;880;52.452;8.656;2023-08-08T09:17:11;7.47;;;6.95;;
1765;SDS011;880;52.452;8.656;2023-08-08T09:19:43;7.60;;;7.10;;
1765;SDS011;880;52.452;8.656;2023-08-08T09:22:12;7.22;;;6.70;;
1765;SDS011;880;52.452;8.656;2023-08-08T09:24:40;8.68;;;8.10;;
1765;SDS011;880;52.452;8.656;2023-08-08T09:27:08;11.18;;;10.07;;
1765;SDS011;880;52.452;8.656;2023-08-08T09:29:36;8.43;;;7.82;;
1765;SDS011;880;52.452;8.656;2023-08-08T09:32:04;7.10;;;6.78;;
1765;SDS011;880;52.452;8.656;2023-08-08T09:34:32;7.63;;;6.68;;
1765;SDS011;880;52.452;8.656;2023-08-08T09:37:00;8.75;;;7.72;;
1765;SDS011;880;52.452;8.656;2023-08-08T09:39:28;7.97;;;7.28;;
1765;SDS011;880;52.452;8.656;2023-08-08T09:41:59;7.50;;;7.00;;
1765;SDS011;880;52.452;8.656;2023-08-08T09:44:32;7.20;;;6.75;;
1765;SDS011;880;52.452;8.656;2023-08-08T09:47:01;8.05;;;7.57;;
1765;SDS011;880;52.452;8.656;2023-08-08T09:49:28;9.73;;;9.27;;
1765;SDS011;880;52.452;8.656;2023-08-08T09:52:00;7.45;;;7.05;;
1765;SDS011;880;52.452;8.656;2023-08-08T09:54:29;8.00;;;7.53;;
1765;SDS011;880;52.452;8.656;2023-08-08T09:56:57;8.95;;;7.60;;
1765;SDS011;880;52.452;8.656;2023-08-08T09:59:25;7.85;;;7.35;;
1765;SDS011;880;52.452;8.656;2023-08-08T10:01:52;8.18;;;7.78;;
1765;SDS011;880;52.452;8.656;2023-08-08T10:04:23;8.07;;;7.68;;
1765;SDS011;880;52.452;8.656;2023-08-08T10:06:51;7.03;;;6.47;;
1765;SDS011;880;52.452;8.656;2023-08-08T10:09:18;7.95;;;7.45;;
1765;SDS011;880;52.452;8.656;2023-08-08T10:11:46;8.15;;;7.60;;
1765;SDS011;880;52.452;8.656;2023-08-08T10:14:13;8.52;;;8.02;;
1765;SDS011;880;52.452;8.656;2023-08-08T10:16:42;8.45;;;7.85;;
1765;SDS011;880;52.452;8.656;2023-08-08T10:19:12;7.97;;;7.57;;
1765;SDS011;880;52.452;8.656;2023-08-08T10:21:43;8.10;;;7.50;;
1765;SDS011;880;52.452;8.656;2023-08-08T10:24:11;8.05;;;7.55;;
1765;SDS011;880;52.452;8.656;2023-08-08T10:26:58;7.45;;;6.90;;
1765;SDS011;880;52.452;8.656;2023-08-08T10:29:29;7.90;;;7.28;;
1765;SDS011;880;52.452;8.656;2023-08-08T10:32:00;7.80;;;7.20;;
1765;SDS011;880;52.452;8.656;2023-08-08T10:34:36;7.35;;;6.95;;
1765;SDS011;880;52.452;8.656;2023-08-08T10:37:24;7.93;;;7.15;;
1765;SDS011;880;52.452;8.656;2023-08-08T10:39:57;7.80;;;7.38;;
1765;SDS011;880;52.452;8.656;2023-08-08T10:42:26;8.02;;;7.22;;
1765;SDS011;880;52.452;8.656;2023-08-08T10:44:55;8.07;;;7.63;;
1765;SDS011;880;52.452;8.656;2023-08-08T10:47:36;7.15;;;6.85;;
1765;SDS011;880;52.452;8.656;2023-08-08T10:50:05;7.85;;;7.05;;
1765;SDS011;880;52.452;8.656;2023-08-08T10:55:22;7.50;;;7.07;;
1765;SDS011;880;52.452;8.656;2023-08-08T10:57:53;7.03;;;6.65;;
1765;SDS011;880;52.452;8.656;2023-08-08T11:00:41;7.30;;;6.80;;
1765;SDS011;880;52.452;8.656;2023-08-08T11:03:09;8.00;;;7.25;;
1765;SDS011;880;52.452;8.656;2023-08-08T11:05:37;7.63;;;7.03;;
1765;SDS011;880;52.452;8.656;2023-08-08T11:08:05;8.57;;;7.90;;
1765;SDS011;880;52.452;8.656;2023-08-08T11:10:37;10.10;;;9.50;;
1765;SDS011;880;52.452;8.656;2023-08-08T11:13:06;8.30;;;7.70;;
1765;SDS011;880;52.452;8.656;2023-08-08T11:15:35;7.10;;;6.78;;
1765;SDS011;880;52.452;8.656;2023-08-08T11:18:05;8.13;;;7.63;;
1765;SDS011;880;52.452;8.656;2023-08-08T11:20:33;7.88;;;7.45;;
1765;SDS011;880;52.452;8.656;2023-08-08T11:23:02;7.78;;;7.38;;
1765;SDS011;880;52.452;8.656;2023-08-08T11:25:36;7.68;;;7.25;;
1765;SDS011;880;52.452;8.656;2023-08-08T11:28:07;8.18;;;7.78;;
1765;SDS011;880;52.452;8.656;2023-08-08T11:30:37;8.02;;;7.53;;
1765;SDS011;880;52.452;8.656;2023-08-08T11:33:07;9.35;;;8.75;;
1765;SDS011;880;52.452;8.656;2023-08-08T11:35:37;7.95;;;7.55;;
1765;SDS011;880;52.452;8.656;2023-08-08T11:38:04;7.80;;;7.30;;
1765;SDS011;880;52.452;8.656;2023-08-08T11:40:32;7.68;;;7.28;;
1765;SDS011;880;52.452;8.656;2023-08-08T11:42:59;7.80;;;7.40;;
1765;SDS011;880;52.452;8.656;2023-08-08T11:45:27;8.18;;;7.47;;
1765;SDS011;880;52.452;8.656;2023-08-08T11:47:54;7.88;;;7.43;;
1765;SDS011;880;52.452;8.656;2023-08-08T11:50:23;7.68;;;7.28;;
1765;SDS011;880;52.452;8.656;2023-08-08T11:52:53;7.68;;;7.18;;
1765;SDS011;880;52.452;8.656;2023-08-08T11:55:30;7.47;;;6.97;;
1765;SDS011;880;52.452;8.656;2023-08-08T11:57:57;8.02;;;7.63;;
1765;SDS011;880;52.452;8.656;2023-08-08T12:00:28;7.20;;;6.80;;
1765;SDS011;880;52.452;8.656;2023-08-08T12:02:57;7.32;;;6.82;;
1765;SDS011;880;52.452;8.656;2023-08-08T12:05:25;6.07;;;4.70;;
1765;SDS011;880;52.452;8.656;2023-08-08T12:07:53;6.32;;;5.03;;
1765;SDS011;880;52.452;8.656;2023-08-08T12:10:23;5.50;;;5.20;;
1765;SDS011;880;52.452;8.656;2023-08-08T12:12:52;4.90;;;4.57;;
1765;SDS011;880;52.452;8.656;2023-08-08T12:15:28;6.45;;;5.47;;
1765;SDS011;880;52.452;8.656;2023-08-08T12:17:58;5.75;;;5.35;;
1765;SDS011;880;52.452;8.656;2023-08-08T12:20:27;6.35;;;5.78;;
1765;SDS011;880;52.452;8.656;2023-08-08T12:22:58;6.43;;;5.93;;
1765;SDS011;880;52.452;8.656;2023-08-08T12:25:26;5.55;;;5.05;;
1765;SDS011;880;52.452;8.656;2023-08-08T12:27:53;8.13;;;7.53;;
1765;SDS011;880;52.452;8.656;2023-08-08T12:30:21;7.07;;;6.78;;
1765;SDS011;880;52.452;8.656;2023-08-08T12:32:48;6.55;;;6.05;;
1765;SDS011;880;52.452;8.656;2023-08-08T12:35:15;8.13;;;7.30;;
1765;SDS011;880;52.452;8.656;2023-08-08T12:37:43;7.63;;;7.05;;
1765;SDS011;880;52.452;8.656;2023-08-08T12:40:11;7.55;;;7.15;;
1765;SDS011;880;52.452;8.656;2023-08-08T12:42:39;8.50;;;7.68;;
1765;SDS011;880;52.452;8.656;2023-08-08T12:45:06;7.50;;;5.63;;
1765;SDS011;880;52.452;8.656;2023-08-08T12:47:34;6.57;;;6.28;;
1765;SDS011;880;52.452;8.656;2023-08-08T12:50:04;4.90;;;4.65;;
1765;SDS011;880;52.452;8.656;2023-08-08T12:52:32;5.68;;;5.38;;
1765;SDS011;880;52.452;8.656;2023-08-08T12:54:59;5.30;;;4.90;;
1765;SDS011;880;52.452;8.656;2023-08-08T12:57:26;5.25;;;4.95;;
1765;SDS011;880;52.452;8.656;2023-08-08T12:59:53;6.47;;;6.00;;
1765;SDS011;880;52.452;8.656;2023-08-08T13:02:20;6.45;;;5.80;;
1765;SDS011;880;52.452;8.656;2023-08-08T13:04:48;5.82;;;5.45;;
1765;SDS011;880;52.452;8.656;2023-08-08T13:07:15;5.45;;;5.15;;
1765;SDS011;880;52.452;8.656;2023-08-08T13:09:42;5.63;;;5.32;;
1765;SDS011;880;52.452;8.656;2023-08-08T13:12:09;7.03;;;6.38;;
1765;SDS011;880;52.452;8.656;2023-08-08T13:14:36;5.70;;;5.50;;
1765;SDS011;880;52.452;8.656;2023-08-08T13:17:03;7.05;;;6.65;;
1765;SDS011;880;52.452;8.656;2023-08-08T13:19:31;6.53;;;6.15;;
1765;SDS011;880;52.452;8.656;2023-08-08T13:21:58;7.15;;;6.63;;
1765;SDS011;880;52.452;8.656;2023-08-08T13:24:26;7.43;;;7.13;;
1765;SDS011;880;52.452;8.656;2023-08-08T13:26:53;6.40;;;6.00;;
1765;SDS011;880;52.452;8.656;2023-08-08T13:29:20;5.75;;;5.45;;
1765;SDS011;880;52.452;8.656;2023-08-08T13:31:47;4.78;;;4.47;;
1765;SDS011;880;52.452;8.656;2023-08-08T13:34:14;5.97;;;5.68;;
1765;SDS011;880;52.452;8.656;2023-08-08T13:36:41;5.07;;;4.88;;
1765;SDS011;880;52.452;8.656;2023-08-08T13:39:08;4.57;;;4.20;;
1765;SDS011;880;52.452;8.656;2023-08-08T13:41:36;4.40;;;4.10;;
1765;SDS011;880;52.452;8.656;2023-08-08T13:44:03;5.28;;;4.97;;
1765;SDS011;880;52.452;8.656;2023-08-08T13:46:30;5.13;;;4.65;;
1765;SDS011;880;52.452;8.656;2023-08-08T13:48:57;5.60;;;5.28;;
1765;SDS011;880;52.452;8.656;2023-08-08T13:51:24;4.97;;;4.68;;
1765;SDS011;880;52.452;8.656;2023-08-08T13:53:51;5.68;;;5.47;;
1765;SDS011;880;52.452;8.656;2023-08-08T13:56:18;6.40;;;6.00;;
1765;SDS011;880;52.452;8.656;2023-08-08T13:58:45;5.85;;;5.43;;
1765;SDS011;880;52.452;8.656;2023-08-08T14:01:12;6.05;;;5.75;;
1765;SDS011;880;52.452;8.656;2023-08-08T14:03:39;5.65;;;5.35;;
1765;SDS011;880;52.452;8.656;2023-08-08T14:06:07;5.65;;;5.40;;
1765;SDS011;880;52.452;8.656;2023-08-08T14:08:34;6.60;;;6.20;;
1765;SDS011;880;52.452;8.656;2023-08-08T14:11:01;5.75;;;5.35;;
1765;SDS011;880;52.452;8.656;2023-08-08T14:13:28;5.53;;;5.25;;
1765;SDS011;880;52.452;8.656;2023-08-08T14:15:55;5.97;;;5.57;;
1765;SDS011;880;52.452;8.656;2023-08-08T14:18:23;5.97;;;5.57;;
1765;SDS011;880;52.452;8.656;2023-08-08T14:20:51;7.03;;;6.63;;
1765;SDS011;880;52.452;8.656;2023-08-08T14:23:18;6.25;;;5.85;;
1765;SDS011;880;52.452;8.656;2023-08-08T14:25:45;5.55;;;5.35;;
1765;SDS011;880;52.452;8.656;2023-08-08T14:28:12;6.22;;;5.93;;
1765;SDS011;880;52.452;8.656;2023-08-08T14:30:39;6.43;;;6.03;;
1765;SDS011;880;52.452;8.656;2023-08-08T14:33:06;6.35;;;6.05;;
1765;SDS011;880;52.452;8.656;2023-08-08T14:35:34;5.65;;;5.38;;
1765;SDS011;880;52.452;8.656;2023-08-08T14:38:01;5.13;;;4.75;;
1765;SDS011;880;52.452;8.656;2023-08-08T14:40:28;7.43;;;6.95;;
1765;SDS011;880;52.452;8.656;2023-08-08T14:42:55;5.53;;;5.22;;
1765;SDS011;880;52.452;8.656;2023-08-08T14:45:22;7.43;;;6.93;;
1765;SDS011;880;52.452;8.656;2023-08-08T14:47:50;5.57;;;5.18;;
1765;SDS011;880;52.452;8.656;2023-08-08T14:50:17;6.22;;;5.90;;
1765;SDS011;880;52.452;8.656;2023-08-08T14:52:44;5.85;;;5.65;;
1765;SDS011;880;52.452;8.656;2023-08-08T14:55:12;5.38;;;5.07;;
1765;SDS011;880;52.452;8.656;2023-08-08T14:57:39;5.78;;;5.38;;
1765;SDS011;880;52.452;8.656;2023-08-08T15:00:06;5.50;;;4.97;;
1765;SDS011;880;52.452;8.656;2023-08-08T15:02:39;5.47;;;5.18;;
1765;SDS011;880;52.452;8.656;2023-08-08T15:05:06;5.53;;;5.10;;
1765;SDS011;880;52.452;8.656;2023-08-08T15:07:34;4.90;;;4.68;;
1765;SDS011;880;52.452;8.656;2023-08-08T15:10:01;5.63;;;5.15;;
1765;SDS011;880;52.452;8.656;2023-08-08T15:12:28;6.35;;;6.05;;
1765;SDS011;880;52.452;8.656;2023-08-08T15:14:55;5.05;;;4.82;;
1765;SDS011;880;52.452;8.656;2023-08-08T15:17:22;5.53;;;5.22;;
1765;SDS011;880;52.452;8.656;2023-08-08T15:19:50;5.78;;;5.25;;
1765;SDS011;880;52.452;8.656;2023-08-08T15:22:17;6.50;;;6.05;;
1765;SDS011;880;52.452;8.656;2023-08-08T15:24:44;6.10;;;5.70;;
1765;SDS011;880;52.452;8.656;2023-08-08T15:27:12;5.95;;;5.55;;
1765;SDS011;880;52.452;8.656;2023-08-08T15:29:39;5.88;;;5.55;;
1765;SDS011;880;52.452;8.656;2023-08-08T15:32:06;6.20;;;5.80;;
1765;SDS011;880;52.452;8.656;2023-08-08T15:34:33;8.13;;;5.43;;
1765;SDS011;880;52.452;8.656;2023-08-08T15:37:00;5.95;;;5.63;;
1765;SDS011;880;52.452;8.656;2023-08-08T15:39:28;5.30;;;5.05;;
1765;SDS011;880;52.452;8.656;2023-08-08T15:41:55;5.75;;;5.45;;
1765;SDS011;880;52.452;8.656;2023-08-08T15:44:22;5.20;;;5.00;;